sensor_id;sensor_type;location;lat;lon;timestamp;temperature;humidity
38568;DHT22;24338;48.280;10.970;2023-03-25T00:00:13;7.70;99.90
38568;DHT22;24338;48.280;10.970;2023-03-25T00:02:46;7.70;99.90
38568;DHT22;24338;48.280;10.970;2023-03-25T00:05:15;7.70;99.90
38568;DHT22;24338;48.280;10.970;2023-03-25T00:07:44;7.70;99.90
38568;DHT22;24338;48.280;10.970;2023-03-25T00:10:12;7.80;99.90
38568;DHT22;24338;48.280;10.970;2023-03-25T00:12:39;7.80;99.90
38568;DHT22;24338;48.280;10.970;2023-03-25T00:15:07;7.80;99.90
38568;DHT22;24338;48.280;10.970;2023-03-25T00:17:34;7.80;99.90
38568;DHT22;24338;48.280;10.970;2023-03-25T00:20:03;7.90;99.90
38568;DHT22;24338;48.280;10.970;2023-03-25T00:22:37;7.90;99.90
38568;DHT22;24338;48.280;10.970;2023-03-25T00:25:12;8.00;99.90
38568;DHT22;24338;48.280;10.970;2023-03-25T00:27:43;8.00;99.90
38568;DHT22;24338;48.280;10.970;2023-03-25T00:30:16;8.00;99.90
38568;DHT22;24338;48.280;10.970;2023-03-25T00:32:44;8.10;99.90
38568;DHT22;24338;48.280;10.970;2023-03-25T00:35:19;8.00;99.90
38568;DHT22;24338;48.280;10.970;2023-03-25T00:37:47;8.00;99.90
38568;DHT22;24338;48.280;10.970;2023-03-25T00:40:23;8.00;99.90
38568;DHT22;24338;48.280;10.970;2023-03-25T00:42:50;8.00;99.90
38568;DHT22;24338;48.280;10.970;2023-03-25T00:45:17;8.00;99.90
38568;DHT22;24338;48.280;10.970;2023-03-25T00:47:44;8.10;99.90
38568;DHT22;24338;48.280;10.970;2023-03-25T00:50:11;8.20;99.90
38568;DHT22;24338;48.280;10.970;2023-03-25T00:52:38;8.20;99.90
38568;DHT22;24338;48.280;10.970;2023-03-25T00:55:06;8.30;99.90
38568;DHT22;24338;48.280;10.970;2023-03-25T00:57:33;8.30;99.90
38568;DHT22;24338;48.280;10.970;2023-03-25T01:00:00;8.30;99.90
38568;DHT22;24338;48.280;10.970;2023-03-25T01:02:27;8.30;99.90
38568;DHT22;24338;48.280;10.970;2023-03-25T01:04:54;8.30;99.90
38568;DHT22;24338;48.280;10.970;2023-03-25T01:07:23;8.30;99.90
38568;DHT22;24338;48.280;10.970;2023-03-25T01:09:50;8.30;99.90
38568;DHT22;24338;48.280;10.970;2023-03-25T01:12:17;8.30;99.90
38568;DHT22;24338;48.280;10.970;2023-03-25T01:14:45;8.30;99.90
38568;DHT22;24338;48.280;10.970;2023-03-25T01:17:12;8.30;99.90
38568;DHT22;24338;48.280;10.970;2023-03-25T01:19:38;8.30;99.90
38568;DHT22;24338;48.280;10.970;2023-03-25T01:22:05;8.30;99.90
38568;DHT22;24338;48.280;10.970;2023-03-25T01:24:32;8.30;99.90
38568;DHT22;24338;48.280;10.970;2023-03-25T01:26:59;8.30;99.90
38568;DHT22;24338;48.280;10.970;2023-03-25T01:29:26;8.40;99.90
38568;DHT22;24338;48.280;10.970;2023-03-25T01:31:54;8.30;99.90
38568;DHT22;24338;48.280;10.970;2023-03-25T01:34:21;8.30;99.90
38568;DHT22;24338;48.280;10.970;2023-03-25T01:36:48;8.30;99.90
38568;DHT22;24338;48.280;10.970;2023-03-25T01:39:17;8.20;99.90
38568;DHT22;24338;48.280;10.970;2023-03-25T01:41:46;8.20;99.90
38568;DHT22;24338;48.280;10.970;2023-03-25T01:46:48;8.30;99.90
38568;DHT22;24338;48.280;10.970;2023-03-25T01:49:23;8.20;99.90
38568;DHT22;24338;48.280;10.970;2023-03-25T01:51:54;8.30;99.90
38568;DHT22;24338;48.280;10.970;2023-03-25T01:54:21;8.30;99.90
38568;DHT22;24338;48.280;10.970;2023-03-25T01:56:49;8.20;99.90
38568;DHT22;24338;48.280;10.970;2023-03-25T01:59:19;8.20;99.90
38568;DHT22;24338;48.280;10.970;2023-03-25T02:01:51;8.20;99.90
38568;DHT22;24338;48.280;10.970;2023-03-25T02:04:26;8.20;99.90
38568;DHT22;24338;48.280;10.970;2023-03-25T02:06:57;8.20;99.90
38568;DHT22;24338;48.280;10.970;2023-03-25T02:09:24;8.20;99.90
38568;DHT22;24338;48.280;10.970;2023-03-25T02:11:52;8.20;99.90
38568;DHT22;24338;48.280;10.970;2023-03-25T02:14:23;8.10;99.90
38568;DHT22;24338;48.280;10.970;2023-03-25T02:28:02;8.10;99.90
38568;DHT22;24338;48.280;10.970;2023-03-25T02:33:26;8.00;99.90
38568;DHT22;24338;48.280;10.970;2023-03-25T02:41:39;8.00;99.90
38568;DHT22;24338;48.280;10.970;2023-03-25T02:44:24;8.00;99.90
38568;DHT22;24338;48.280;10.970;2023-03-25T02:46:57;7.90;99.90
38568;DHT22;24338;48.280;10.970;2023-03-25T02:49:31;8.00;99.90
38568;DHT22;24338;48.280;10.970;2023-03-25T02:54:39;7.80;99.90
38568;DHT22;24338;48.280;10.970;2023-03-25T02:57:08;7.70;99.90
38568;DHT22;24338;48.280;10.970;2023-03-25T02:59:37;7.60;99.90
38568;DHT22;24338;48.280;10.970;2023-03-25T03:02:07;7.60;99.90
38568;DHT22;24338;48.280;10.970;2023-03-25T03:04:49;7.60;99.90
38568;DHT22;24338;48.280;10.970;2023-03-25T03:07:26;7.50;99.90
38568;DHT22;24338;48.280;10.970;2023-03-25T03:10:19;7.50;99.90
38568;DHT22;24338;48.280;10.970;2023-03-25T03:21:12;7.30;99.90
38568;DHT22;24338;48.280;10.970;2023-03-25T03:23:48;7.20;99.90
38568;DHT22;24338;48.280;10.970;2023-03-25T03:26:25;7.20;99.90
38568;DHT22;24338;48.280;10.970;2023-03-25T03:31:35;7.30;99.90
38568;DHT22;24338;48.280;10.970;2023-03-25T03:34:29;7.30;99.90
38568;DHT22;24338;48.280;10.970;2023-03-25T03:37:00;7.40;99.90
38568;DHT22;24338;48.280;10.970;2023-03-25T03:39:31;7.40;99.90
38568;DHT22;24338;48.280;10.970;2023-03-25T03:42:04;7.40;99.90
38568;DHT22;24338;48.280;10.970;2023-03-25T03:44:34;7.40;99.90
38568;DHT22;24338;48.280;10.970;2023-03-25T03:47:08;7.40;99.90
38568;DHT22;24338;48.280;10.970;2023-03-25T03:49:46;7.40;99.90
38568;DHT22;24338;48.280;10.970;2023-03-25T03:52:17;7.40;99.90
38568;DHT22;24338;48.280;10.970;2023-03-25T03:54:54;7.50;99.90
38568;DHT22;24338;48.280;10.970;2023-03-25T03:57:28;7.60;99.90
38568;DHT22;24338;48.280;10.970;2023-03-25T04:00:05;7.60;99.90
38568;DHT22;24338;48.280;10.970;2023-03-25T04:02:43;7.60;99.90
38568;DHT22;24338;48.280;10.970;2023-03-25T04:05:15;7.50;99.90
38568;DHT22;24338;48.280;10.970;2023-03-25T04:07:52;7.60;99.90
38568;DHT22;24338;48.280;10.970;2023-03-25T04:11:03;7.50;99.90
38568;DHT22;24338;48.280;10.970;2023-03-25T04:13:36;7.50;99.90
38568;DHT22;24338;48.280;10.970;2023-03-25T04:16:05;7.50;99.90
38568;DHT22;24338;48.280;10.970;2023-03-25T04:18:32;7.50;99.90
38568;DHT22;24338;48.280;10.970;2023-03-25T04:21:00;7.60;99.90
38568;DHT22;24338;48.280;10.970;2023-03-25T04:23:27;7.60;99.90
38568;DHT22;24338;48.280;10.970;2023-03-25T04:25:57;7.60;99.90
38568;DHT22;24338;48.280;10.970;2023-03-25T04:28:28;7.70;99.90
38568;DHT22;24338;48.280;10.970;2023-03-25T04:30:55;7.70;99.90
38568;DHT22;24338;48.280;10.970;2023-03-25T04:33:24;7.70;99.90
38568;DHT22;24338;48.280;10.970;2023-03-25T04:35:51;7.60;99.90
38568;DHT22;24338;48.280;10.970;2023-03-25T04:38:18;7.70;99.90
38568;DHT22;24338;48.280;10.970;2023-03-25T04:40:46;7.70;99.90
38568;DHT22;24338;48.280;10.970;2023-03-25T04:43:14;7.70;99.90
38568;DHT22;24338;48.280;10.970;2023-03-25T04:45:43;7.70;99.90
38568;DHT22;24338;48.280;10.970;2023-03-25T04:48:21;7.70;99.90
38568;DHT22;24338;48.280;10.970;2023-03-25T04:50:49;7.70;99.90
38568;DHT22;24338;48.280;10.970;2023-03-25T04:53:21;7.80;99.90
38568;DHT22;24338;48.280;10.970;2023-03-25T04:55:48;7.70;99.90
38568;DHT22;24338;48.280;10.970;2023-03-25T04:58:16;7.70;99.90
38568;DHT22;24338;48.280;10.970;2023-03-25T05:00:45;7.70;99.90
38568;DHT22;24338;48.280;10.970;2023-03-25T05:03:26;7.70;99.90
38568;DHT22;24338;48.280;10.970;2023-03-25T05:05:53;7.70;99.90
38568;DHT22;24338;48.280;10.970;2023-03-25T05:08:20;7.70;99.90
38568;DHT22;24338;48.280;10.970;2023-03-25T05:10:48;7.70;99.90
38568;DHT22;24338;48.280;10.970;2023-03-25T05:13:16;7.60;99.90
38568;DHT22;24338;48.280;10.970;2023-03-25T05:15:43;7.60;99.90
38568;DHT22;24338;48.280;10.970;2023-03-25T05:18:12;7.60;99.90
38568;DHT22;24338;48.280;10.970;2023-03-25T05:20:42;7.60;99.90
38568;DHT22;24338;48.280;10.970;2023-03-25T05:23:11;7.60;99.90
38568;DHT22;24338;48.280;10.970;2023-03-25T05:25:41;7.50;99.90
38568;DHT22;24338;48.280;10.970;2023-03-25T05:28:09;7.50;99.90
38568;DHT22;24338;48.280;10.970;2023-03-25T05:30:40;7.40;99.90
38568;DHT22;24338;48.280;10.970;2023-03-25T05:33:12;7.40;99.90
38568;DHT22;24338;48.280;10.970;2023-03-25T05:35:43;7.40;99.90
38568;DHT22;24338;48.280;10.970;2023-03-25T05:38:10;7.40;99.90
38568;DHT22;24338;48.280;10.970;2023-03-25T05:40:45;7.40;99.90
38568;DHT22;24338;48.280;10.970;2023-03-25T05:43:13;7.40;99.90
38568;DHT22;24338;48.280;10.970;2023-03-25T05:45:41;7.30;99.90
38568;DHT22;24338;48.280;10.970;2023-03-25T05:48:08;7.30;99.90
38568;DHT22;24338;48.280;10.970;2023-03-25T05:50:36;7.30;99.90
38568;DHT22;24338;48.280;10.970;2023-03-25T05:53:03;7.30;99.90
38568;DHT22;24338;48.280;10.970;2023-03-25T05:55:30;7.30;99.90
38568;DHT22;24338;48.280;10.970;2023-03-25T05:57:57;7.30;99.90
38568;DHT22;24338;48.280;10.970;2023-03-25T06:00:24;7.30;99.90
38568;DHT22;24338;48.280;10.970;2023-03-25T06:02:51;7.30;99.90
38568;DHT22;24338;48.280;10.970;2023-03-25T06:05:18;7.30;99.90
38568;DHT22;24338;48.280;10.970;2023-03-25T06:07:49;7.30;99.90
38568;DHT22;24338;48.280;10.970;2023-03-25T06:10:17;7.30;99.90
38568;DHT22;24338;48.280;10.970;2023-03-25T06:12:45;7.30;99.90
38568;DHT22;24338;48.280;10.970;2023-03-25T06:15:14;7.30;99.90
38568;DHT22;24338;48.280;10.970;2023-03-25T06:17:43;7.30;99.90
38568;DHT22;24338;48.280;10.970;2023-03-25T06:20:13;7.30;99.90
38568;DHT22;24338;48.280;10.970;2023-03-25T06:22:43;7.30;99.90
38568;DHT22;24338;48.280;10.970;2023-03-25T06:25:16;7.30;99.90
38568;DHT22;24338;48.280;10.970;2023-03-25T06:27:49;7.30;99.90
38568;DHT22;24338;48.280;10.970;2023-03-25T06:30:19;7.30;99.90
38568;DHT22;24338;48.280;10.970;2023-03-25T06:32:46;7.30;99.90
38568;DHT22;24338;48.280;10.970;2023-03-25T06:35:18;7.30;99.90
38568;DHT22;24338;48.280;10.970;2023-03-25T06:37:47;7.20;99.90
38568;DHT22;24338;48.280;10.970;2023-03-25T06:40:14;7.30;99.90
38568;DHT22;24338;48.280;10.970;2023-03-25T06:42:41;7.30;99.90
38568;DHT22;24338;48.280;10.970;2023-03-25T06:45:08;7.20;99.90
38568;DHT22;24338;48.280;10.970;2023-03-25T06:47:36;7.20;99.90
38568;DHT22;24338;48.280;10.970;2023-03-25T06:50:03;7.10;99.90
38568;DHT22;24338;48.280;10.970;2023-03-25T06:52:30;7.10;99.90
38568;DHT22;24338;48.280;10.970;2023-03-25T06:54:57;7.10;99.90
38568;DHT22;24338;48.280;10.970;2023-03-25T06:57:24;7.10;99.90
38568;DHT22;24338;48.280;10.970;2023-03-25T06:59:50;7.10;99.90
38568;DHT22;24338;48.280;10.970;2023-03-25T07:02:17;7.10;99.90
38568;DHT22;24338;48.280;10.970;2023-03-25T07:04:44;7.20;99.90
38568;DHT22;24338;48.280;10.970;2023-03-25T07:07:11;7.20;99.90
38568;DHT22;24338;48.280;10.970;2023-03-25T07:09:38;7.10;99.90
38568;DHT22;24338;48.280;10.970;2023-03-25T07:12:05;7.10;99.90
38568;DHT22;24338;48.280;10.970;2023-03-25T07:14:34;7.10;99.90
38568;DHT22;24338;48.280;10.970;2023-03-25T07:17:01;7.10;99.90
38568;DHT22;24338;48.280;10.970;2023-03-25T07:19:28;7.10;99.90
38568;DHT22;24338;48.280;10.970;2023-03-25T07:21:55;7.30;99.90
38568;DHT22;24338;48.280;10.970;2023-03-25T07:24:22;7.40;99.90
38568;DHT22;24338;48.280;10.970;2023-03-25T07:26:48;7.50;99.90
38568;DHT22;24338;48.280;10.970;2023-03-25T07:29:15;7.40;99.90
38568;DHT22;24338;48.280;10.970;2023-03-25T07:31:42;7.40;99.90
38568;DHT22;24338;48.280;10.970;2023-03-25T07:34:09;7.30;99.90
38568;DHT22;24338;48.280;10.970;2023-03-25T07:36:35;7.30;99.90
38568;DHT22;24338;48.280;10.970;2023-03-25T07:39:02;7.30;99.90
38568;DHT22;24338;48.280;10.970;2023-03-25T07:41:29;7.50;99.90
38568;DHT22;24338;48.280;10.970;2023-03-25T07:43:56;7.50;99.90
38568;DHT22;24338;48.280;10.970;2023-03-25T07:46:23;7.50;99.90
38568;DHT22;24338;48.280;10.970;2023-03-25T07:48:50;7.50;99.90
38568;DHT22;24338;48.280;10.970;2023-03-25T07:51:16;7.60;99.90
38568;DHT22;24338;48.280;10.970;2023-03-25T07:53:43;7.60;99.90
38568;DHT22;24338;48.280;10.970;2023-03-25T07:56:12;7.80;99.90
38568;DHT22;24338;48.280;10.970;2023-03-25T07:58:40;7.90;99.90
38568;DHT22;24338;48.280;10.970;2023-03-25T08:01:07;7.90;99.90
38568;DHT22;24338;48.280;10.970;2023-03-25T08:03:34;7.90;99.90
38568;DHT22;24338;48.280;10.970;2023-03-25T08:06:04;7.90;99.90
38568;DHT22;24338;48.280;10.970;2023-03-25T08:08:32;7.90;99.90
38568;DHT22;24338;48.280;10.970;2023-03-25T08:11:00;7.90;99.90
38568;DHT22;24338;48.280;10.970;2023-03-25T08:13:27;8.00;99.90
38568;DHT22;24338;48.280;10.970;2023-03-25T08:15:54;8.00;99.90
38568;DHT22;24338;48.280;10.970;2023-03-25T08:18:21;8.20;99.90
38568;DHT22;24338;48.280;10.970;2023-03-25T08:20:48;8.30;99.90
38568;DHT22;24338;48.280;10.970;2023-03-25T08:23:18;8.30;99.90
38568;DHT22;24338;48.280;10.970;2023-03-25T08:25:49;8.40;99.90
38568;DHT22;24338;48.280;10.970;2023-03-25T08:28:18;8.30;99.90
38568;DHT22;24338;48.280;10.970;2023-03-25T08:30:52;8.20;99.90
38568;DHT22;24338;48.280;10.970;2023-03-25T08:33:24;8.20;99.90
38568;DHT22;24338;48.280;10.970;2023-03-25T08:36:00;8.20;99.90
38568;DHT22;24338;48.280;10.970;2023-03-25T08:38:30;8.10;99.90
38568;DHT22;24338;48.280;10.970;2023-03-25T08:41:00;8.10;99.90
38568;DHT22;24338;48.280;10.970;2023-03-25T08:43:27;8.00;99.90
38568;DHT22;24338;48.280;10.970;2023-03-25T08:45:54;8.00;99.90
38568;DHT22;24338;48.280;10.970;2023-03-25T08:48:21;8.10;99.90
38568;DHT22;24338;48.280;10.970;2023-03-25T08:50:48;8.10;99.90
38568;DHT22;24338;48.280;10.970;2023-03-25T08:53:15;8.10;99.90
38568;DHT22;24338;48.280;10.970;2023-03-25T08:55:42;8.20;99.90
38568;DHT22;24338;48.280;10.970;2023-03-25T08:58:09;8.30;99.90
38568;DHT22;24338;48.280;10.970;2023-03-25T09:00:36;8.50;99.90
38568;DHT22;24338;48.280;10.970;2023-03-25T09:03:04;8.60;99.90
38568;DHT22;24338;48.280;10.970;2023-03-25T09:05:30;8.60;99.90
38568;DHT22;24338;48.280;10.970;2023-03-25T09:07:57;8.80;99.90
38568;DHT22;24338;48.280;10.970;2023-03-25T09:10:24;8.80;99.90
38568;DHT22;24338;48.280;10.970;2023-03-25T09:12:51;8.80;99.90
38568;DHT22;24338;48.280;10.970;2023-03-25T09:15:18;8.80;99.90
38568;DHT22;24338;48.280;10.970;2023-03-25T09:17:45;8.90;99.90
38568;DHT22;24338;48.280;10.970;2023-03-25T09:20:12;8.90;99.90
38568;DHT22;24338;48.280;10.970;2023-03-25T09:22:39;9.10;99.90
38568;DHT22;24338;48.280;10.970;2023-03-25T09:25:07;9.30;99.90
38568;DHT22;24338;48.280;10.970;2023-03-25T09:27:34;9.50;99.90
38568;DHT22;24338;48.280;10.970;2023-03-25T09:30:02;9.50;99.90
38568;DHT22;24338;48.280;10.970;2023-03-25T09:32:33;9.60;99.90
38568;DHT22;24338;48.280;10.970;2023-03-25T09:34:59;9.80;99.90
38568;DHT22;24338;48.280;10.970;2023-03-25T09:37:26;9.90;99.90
38568;DHT22;24338;48.280;10.970;2023-03-25T09:39:53;9.80;99.90
38568;DHT22;24338;48.280;10.970;2023-03-25T09:45:33;9.70;99.90
38568;DHT22;24338;48.280;10.970;2023-03-25T09:48:23;10.10;99.90
38568;DHT22;24338;48.280;10.970;2023-03-25T09:50:52;10.20;99.90
38568;DHT22;24338;48.280;10.970;2023-03-25T09:55:49;10.10;99.90
38568;DHT22;24338;48.280;10.970;2023-03-25T09:58:39;10.00;99.90
38568;DHT22;24338;48.280;10.970;2023-03-25T10:01:18;10.00;99.90
38568;DHT22;24338;48.280;10.970;2023-03-25T10:03:58;9.90;99.90
38568;DHT22;24338;48.280;10.970;2023-03-25T10:06:30;9.80;99.90
38568;DHT22;24338;48.280;10.970;2023-03-25T10:11:54;9.70;99.90
38568;DHT22;24338;48.280;10.970;2023-03-25T10:14:34;9.70;99.90
38568;DHT22;24338;48.280;10.970;2023-03-25T10:17:15;9.60;99.90
38568;DHT22;24338;48.280;10.970;2023-03-25T10:25:40;9.70;99.90
38568;DHT22;24338;48.280;10.970;2023-03-25T10:28:16;9.70;99.90
38568;DHT22;24338;48.280;10.970;2023-03-25T10:30:47;9.80;99.90
38568;DHT22;24338;48.280;10.970;2023-03-25T10:35:58;9.90;99.90
38568;DHT22;24338;48.280;10.970;2023-03-25T10:38:31;9.80;99.90
38568;DHT22;24338;48.280;10.970;2023-03-25T10:41:25;9.90;99.90
38568;DHT22;24338;48.280;10.970;2023-03-25T10:43:52;9.80;99.90
38568;DHT22;24338;48.280;10.970;2023-03-25T10:46:35;9.70;99.90
38568;DHT22;24338;48.280;10.970;2023-03-25T10:49:20;9.70;99.90
38568;DHT22;24338;48.280;10.970;2023-03-25T10:51:50;9.80;99.90
38568;DHT22;24338;48.280;10.970;2023-03-25T10:54:20;9.90;99.90
38568;DHT22;24338;48.280;10.970;2023-03-25T10:56:52;10.00;99.90
38568;DHT22;24338;48.280;10.970;2023-03-25T10:59:28;10.00;99.90
38568;DHT22;24338;48.280;10.970;2023-03-25T11:01:56;10.00;99.90
38568;DHT22;24338;48.280;10.970;2023-03-25T11:04:37;10.10;99.90
38568;DHT22;24338;48.280;10.970;2023-03-25T11:07:18;10.60;99.90
38568;DHT22;24338;48.280;10.970;2023-03-25T11:09:46;10.50;99.90
38568;DHT22;24338;48.280;10.970;2023-03-25T11:12:17;10.30;99.90
38568;DHT22;24338;48.280;10.970;2023-03-25T11:14:57;10.10;99.90
38568;DHT22;24338;48.280;10.970;2023-03-25T11:17:28;10.00;99.90
38568;DHT22;24338;48.280;10.970;2023-03-25T11:20:00;10.10;99.90
38568;DHT22;24338;48.280;10.970;2023-03-25T11:22:41;10.20;99.90
38568;DHT22;24338;48.280;10.970;2023-03-25T11:25:39;10.30;99.90
38568;DHT22;24338;48.280;10.970;2023-03-25T11:28:22;10.20;99.90
38568;DHT22;24338;48.280;10.970;2023-03-25T11:31:22;10.10;99.90
38568;DHT22;24338;48.280;10.970;2023-03-25T11:36:37;10.10;99.90
38568;DHT22;24338;48.280;10.970;2023-03-25T11:39:35;10.10;99.90
38568;DHT22;24338;48.280;10.970;2023-03-25T11:45:02;10.00;99.90
38568;DHT22;24338;48.280;10.970;2023-03-25T11:47:35;10.10;99.90
38568;DHT22;24338;48.280;10.970;2023-03-25T11:50:04;10.30;99.90
38568;DHT22;24338;48.280;10.970;2023-03-25T11:52:44;10.30;99.90
38568;DHT22;24338;48.280;10.970;2023-03-25T11:55:23;10.40;99.90
38568;DHT22;24338;48.280;10.970;2023-03-25T11:57:53;10.40;99.90
38568;DHT22;24338;48.280;10.970;2023-03-25T12:02:58;10.20;99.90
38568;DHT22;24338;48.280;10.970;2023-03-25T12:05:26;10.40;99.90
38568;DHT22;24338;48.280;10.970;2023-03-25T12:08:02;10.60;99.90
38568;DHT22;24338;48.280;10.970;2023-03-25T12:24:08;10.70;99.90
38568;DHT22;24338;48.280;10.970;2023-03-25T12:26:58;11.20;99.90
38568;DHT22;24338;48.280;10.970;2023-03-25T12:29:33;11.40;99.90
38568;DHT22;24338;48.280;10.970;2023-03-25T12:35:20;11.30;99.90
38568;DHT22;24338;48.280;10.970;2023-03-25T12:41:10;11.60;99.90
38568;DHT22;24338;48.280;10.970;2023-03-25T12:44:22;11.70;99.90
38568;DHT22;24338;48.280;10.970;2023-03-25T13:03:26;12.10;99.90
38568;DHT22;24338;48.280;10.970;2023-03-25T13:12:12;12.10;99.90
38568;DHT22;24338;48.280;10.970;2023-03-25T13:20:33;12.80;99.90
38568;DHT22;24338;48.280;10.970;2023-03-25T13:23:06;12.50;99.90
38568;DHT22;24338;48.280;10.970;2023-03-25T13:25:59;12.50;99.90
38568;DHT22;24338;48.280;10.970;2023-03-25T13:28:31;12.30;99.90
38568;DHT22;24338;48.280;10.970;2023-03-25T13:31:07;12.00;99.90
38568;DHT22;24338;48.280;10.970;2023-03-25T13:33:41;11.90;99.90
38568;DHT22;24338;48.280;10.970;2023-03-25T13:36:14;11.90;99.50
38568;DHT22;24338;48.280;10.970;2023-03-25T13:38:55;12.20;98.90
38568;DHT22;24338;48.280;10.970;2023-03-25T13:41:36;12.20;99.90
38568;DHT22;24338;48.280;10.970;2023-03-25T13:44:11;12.80;99.90
38568;DHT22;24338;48.280;10.970;2023-03-25T13:49:31;12.30;99.60
38568;DHT22;24338;48.280;10.970;2023-03-25T13:52:00;12.00;99.90
38568;DHT22;24338;48.280;10.970;2023-03-25T13:57:24;12.20;99.90
38568;DHT22;24338;48.280;10.970;2023-03-25T14:05:22;12.40;99.90
38568;DHT22;24338;48.280;10.970;2023-03-25T14:08:28;12.40;99.40
38568;DHT22;24338;48.280;10.970;2023-03-25T14:13:45;12.20;99.00
38568;DHT22;24338;48.280;10.970;2023-03-25T14:16:18;12.50;99.20
38568;DHT22;24338;48.280;10.970;2023-03-25T14:18:51;12.60;97.00
38568;DHT22;24338;48.280;10.970;2023-03-25T14:24:05;12.30;99.40
38568;DHT22;24338;48.280;10.970;2023-03-25T14:26:35;12.00;99.10
38568;DHT22;24338;48.280;10.970;2023-03-25T14:29:19;11.80;99.90
38568;DHT22;24338;48.280;10.970;2023-03-25T14:34:29;11.30;99.90
38568;DHT22;24338;48.280;10.970;2023-03-25T14:41:59;10.40;99.90
38568;DHT22;24338;48.280;10.970;2023-03-25T14:44:50;10.10;99.90
38568;DHT22;24338;48.280;10.970;2023-03-25T14:47:28;9.80;99.90
38568;DHT22;24338;48.280;10.970;2023-03-25T14:52:44;9.10;99.90
38568;DHT22;24338;48.280;10.970;2023-03-25T15:00:32;8.80;99.90
38568;DHT22;24338;48.280;10.970;2023-03-25T15:03:08;8.90;99.90
38568;DHT22;24338;48.280;10.970;2023-03-25T15:05:37;9.00;99.90
38568;DHT22;24338;48.280;10.970;2023-03-25T15:10:35;9.20;99.90
38568;DHT22;24338;48.280;10.970;2023-03-25T15:13:15;9.30;99.90
38568;DHT22;24338;48.280;10.970;2023-03-25T15:18:12;9.60;99.90
38568;DHT22;24338;48.280;10.970;2023-03-25T15:26:42;9.50;99.90
38568;DHT22;24338;48.280;10.970;2023-03-25T15:43:43;10.70;99.90
38568;DHT22;24338;48.280;10.970;2023-03-25T15:49:13;10.80;99.90
38568;DHT22;24338;48.280;10.970;2023-03-25T15:54:38;10.60;99.90
38568;DHT22;24338;48.280;10.970;2023-03-25T15:57:20;10.50;99.90
38568;DHT22;24338;48.280;10.970;2023-03-25T16:03:00;10.00;99.90
38568;DHT22;24338;48.280;10.970;2023-03-25T16:05:31;9.70;99.90
38568;DHT22;24338;48.280;10.970;2023-03-25T16:08:10;9.60;99.90
38568;DHT22;24338;48.280;10.970;2023-03-25T16:10:41;9.60;99.90
38568;DHT22;24338;48.280;10.970;2023-03-25T16:13:12;9.50;99.90
38568;DHT22;24338;48.280;10.970;2023-03-25T16:15:45;9.50;99.90
38568;DHT22;24338;48.280;10.970;2023-03-25T16:18:14;9.50;99.90
38568;DHT22;24338;48.280;10.970;2023-03-25T16:20:42;9.50;99.90
38568;DHT22;24338;48.280;10.970;2023-03-25T16:23:18;9.40;99.90
38568;DHT22;24338;48.280;10.970;2023-03-25T16:25:47;9.30;99.90
38568;DHT22;24338;48.280;10.970;2023-03-25T16:28:31;9.30;99.90
38568;DHT22;24338;48.280;10.970;2023-03-25T16:30:58;9.40;99.90
38568;DHT22;24338;48.280;10.970;2023-03-25T16:33:30;9.50;99.90
38568;DHT22;24338;48.280;10.970;2023-03-25T16:36:03;9.50;99.90
38568;DHT22;24338;48.280;10.970;2023-03-25T16:38:32;9.70;99.90
38568;DHT22;24338;48.280;10.970;2023-03-25T16:41:17;9.90;99.90
38568;DHT22;24338;48.280;10.970;2023-03-25T16:43:44;10.10;99.90
38568;DHT22;24338;48.280;10.970;2023-03-25T16:46:13;10.00;99.90
38568;DHT22;24338;48.280;10.970;2023-03-25T16:48:47;9.90;99.90
38568;DHT22;24338;48.280;10.970;2023-03-25T16:51:28;9.80;99.90
38568;DHT22;24338;48.280;10.970;2023-03-25T16:54:07;9.80;99.90
38568;DHT22;24338;48.280;10.970;2023-03-25T16:56:38;9.70;99.90
38568;DHT22;24338;48.280;10.970;2023-03-25T16:59:13;9.60;99.90
38568;DHT22;24338;48.280;10.970;2023-03-25T17:01:43;9.40;99.90
38568;DHT22;24338;48.280;10.970;2023-03-25T17:04:20;9.30;99.90
38568;DHT22;24338;48.280;10.970;2023-03-25T17:06:58;9.20;99.90
38568;DHT22;24338;48.280;10.970;2023-03-25T17:09:28;9.20;99.90
38568;DHT22;24338;48.280;10.970;2023-03-25T17:12:01;9.10;99.90
38568;DHT22;24338;48.280;10.970;2023-03-25T17:14:35;9.00;99.90
38568;DHT22;24338;48.280;10.970;2023-03-25T17:17:44;8.90;99.90
38568;DHT22;24338;48.280;10.970;2023-03-25T17:20:17;8.80;99.90
38568;DHT22;24338;48.280;10.970;2023-03-25T17:23:50;8.80;99.90
38568;DHT22;24338;48.280;10.970;2023-03-25T17:25:58;8.60;99.90
38568;DHT22;24338;48.280;10.970;2023-03-25T17:34:00;8.50;99.90
38568;DHT22;24338;48.280;10.970;2023-03-25T17:36:30;8.50;99.90
38568;DHT22;24338;48.280;10.970;2023-03-25T17:38:59;8.40;99.90
38568;DHT22;24338;48.280;10.970;2023-03-25T17:41:35;8.40;99.90
38568;DHT22;24338;48.280;10.970;2023-03-25T17:44:03;8.40;99.90
38568;DHT22;24338;48.280;10.970;2023-03-25T17:46:33;8.30;99.90
38568;DHT22;24338;48.280;10.970;2023-03-25T17:49:00;8.20;99.90
38568;DHT22;24338;48.280;10.970;2023-03-25T17:51:35;8.30;99.90
38568;DHT22;24338;48.280;10.970;2023-03-25T17:54:02;8.20;99.90
38568;DHT22;24338;48.280;10.970;2023-03-25T17:56:29;8.10;99.90
38568;DHT22;24338;48.280;10.970;2023-03-25T17:59:01;7.90;99.90
38568;DHT22;24338;48.280;10.970;2023-03-25T18:01:29;7.80;99.90
38568;DHT22;24338;48.280;10.970;2023-03-25T18:04:00;7.70;99.90
38568;DHT22;24338;48.280;10.970;2023-03-25T18:06:27;7.70;99.90
38568;DHT22;24338;48.280;10.970;2023-03-25T18:08:54;7.70;99.90
38568;DHT22;24338;48.280;10.970;2023-03-25T18:11:21;7.60;99.90
38568;DHT22;24338;48.280;10.970;2023-03-25T18:13:48;7.60;99.90
38568;DHT22;24338;48.280;10.970;2023-03-25T18:16:17;7.50;99.90
38568;DHT22;24338;48.280;10.970;2023-03-25T18:18:44;7.50;99.90
38568;DHT22;24338;48.280;10.970;2023-03-25T18:21:12;7.60;99.90
38568;DHT22;24338;48.280;10.970;2023-03-25T18:23:40;7.60;99.90
38568;DHT22;24338;48.280;10.970;2023-03-25T18:26:12;7.60;99.90
38568;DHT22;24338;48.280;10.970;2023-03-25T18:28:39;7.60;99.90
38568;DHT22;24338;48.280;10.970;2023-03-25T18:31:10;7.60;99.90
38568;DHT22;24338;48.280;10.970;2023-03-25T18:33:45;7.50;99.90
38568;DHT22;24338;48.280;10.970;2023-03-25T18:36:16;7.50;99.90
38568;DHT22;24338;48.280;10.970;2023-03-25T18:38:44;7.50;99.90
38568;DHT22;24338;48.280;10.970;2023-03-25T18:41:11;7.50;99.90
38568;DHT22;24338;48.280;10.970;2023-03-25T18:43:43;7.40;99.90
38568;DHT22;24338;48.280;10.970;2023-03-25T18:46:11;7.40;99.90
38568;DHT22;24338;48.280;10.970;2023-03-25T18:48:39;7.40;99.90
38568;DHT22;24338;48.280;10.970;2023-03-25T18:51:09;7.40;99.90
38568;DHT22;24338;48.280;10.970;2023-03-25T18:53:37;7.40;99.90
38568;DHT22;24338;48.280;10.970;2023-03-25T18:56:04;7.40;99.90